createdAt,value
2018-10-05T00:01:44.851Z,11.96
2018-10-05T00:04:13.215Z,11.97
2018-10-05T00:06:41.555Z,11.98
2018-10-05T00:09:11.566Z,12.05
2018-10-05T00:11:39.802Z,12.08
2018-10-05T00:14:08.445Z,11.88
2018-10-05T00:16:36.600Z,11.95
2018-10-05T00:19:04.846Z,11.98
2018-10-05T00:21:33.244Z,12.03
2018-10-05T00:24:01.622Z,12.07
2018-10-05T00:26:29.804Z,12.02
2018-10-05T00:28:57.941Z,12.02
2018-10-05T00:31:26.260Z,12.08
2018-10-05T00:33:54.538Z,12.23
2018-10-05T00:36:22.626Z,12.17
2018-10-05T00:38:50.745Z,12.31
2018-10-05T00:41:19.023Z,12.22
2018-10-05T00:43:47.209Z,12.27
2018-10-05T00:46:15.511Z,12.32
2018-10-05T00:48:43.667Z,12.41
2018-10-05T00:51:11.857Z,12.35
2018-10-05T00:53:40.122Z,12.41
2018-10-05T00:56:08.405Z,12.38
2018-10-05T00:58:36.710Z,12.40
2018-10-05T01:01:05.090Z,12.43
2018-10-05T01:03:33.232Z,12.42
2018-10-05T01:06:01.578Z,12.42
2018-10-05T01:08:29.796Z,12.36
2018-10-05T01:10:57.952Z,12.39
2018-10-05T01:13:30.459Z,12.38
2018-10-05T01:15:58.680Z,12.30
2018-10-05T01:18:26.916Z,12.27
2018-10-05T01:20:55.069Z,12.27
2018-10-05T01:23:23.233Z,12.22
2018-10-05T01:25:51.412Z,12.17
2018-10-05T01:28:19.696Z,12.27
2018-10-05T01:30:48.368Z,12.20
2018-10-05T01:33:16.498Z,12.18
2018-10-05T01:35:44.637Z,12.25
2018-10-05T01:38:12.764Z,12.21
2018-10-05T01:40:40.914Z,12.20
2018-10-05T01:43:09.064Z,12.23
2018-10-05T01:45:37.358Z,12.29
2018-10-05T01:48:05.899Z,12.28
2018-10-05T01:50:34.290Z,12.27
2018-10-05T01:53:02.559Z,12.23
2018-10-05T01:55:31.278Z,12.31
2018-10-05T01:57:59.520Z,12.43
2018-10-05T02:00:27.679Z,12.44
2018-10-05T02:02:55.911Z,12.43
2018-10-05T02:05:24.144Z,12.32
2018-10-05T02:07:52.355Z,12.28
2018-10-05T02:10:20.718Z,12.35
2018-10-05T02:12:48.861Z,12.32
2018-10-05T02:15:17.056Z,12.32
2018-10-05T02:17:45.456Z,12.36
2018-10-05T02:20:13.586Z,12.27
2018-10-05T02:22:41.768Z,12.26
2018-10-05T02:25:10.056Z,12.32
2018-10-05T02:27:38.461Z,12.30
2018-10-05T02:30:06.465Z,12.45
2018-10-05T02:32:34.636Z,12.37
2018-10-05T02:35:02.793Z,12.48
2018-10-05T02:37:30.923Z,12.48
2018-10-05T02:39:59.098Z,12.45
2018-10-05T02:42:27.274Z,12.46
2018-10-05T02:44:55.509Z,12.40
2018-10-05T02:47:23.632Z,12.38
2018-10-05T02:49:51.756Z,12.43
2018-10-05T02:52:20.036Z,12.35
2018-10-05T02:54:48.213Z,12.29
2018-10-05T02:57:17.464Z,12.34
2018-10-05T02:59:45.583Z,12.38
2018-10-05T03:02:25.160Z,12.29
2018-10-05T03:04:53.315Z,12.41
2018-10-05T03:07:21.588Z,12.38
2018-10-05T03:09:49.816Z,12.37
2018-10-05T03:12:18.041Z,12.39
2018-10-05T03:14:46.868Z,12.31
2018-10-05T03:17:15.295Z,12.33
2018-10-05T03:19:43.662Z,12.47
2018-10-05T03:22:11.847Z,12.33
2018-10-05T03:24:40.040Z,12.33
2018-10-05T03:27:08.236Z,12.53
2018-10-05T03:29:36.493Z,12.41
2018-10-05T03:32:04.787Z,12.41
2018-10-05T03:34:32.901Z,12.39
2018-10-05T03:37:02.483Z,12.41
2018-10-05T03:39:30.738Z,12.45
2018-10-05T03:41:58.894Z,12.47
2018-10-05T03:44:27.025Z,12.50
2018-10-05T03:46:55.187Z,12.50
2018-10-05T03:49:23.349Z,12.42
2018-10-05T03:51:51.474Z,12.53
2018-10-05T03:54:19.641Z,12.49
2018-10-05T03:56:47.823Z,12.46
2018-10-05T03:59:15.958Z,12.49
2018-10-05T04:01:44.121Z,12.52
2018-10-05T04:04:12.295Z,12.43
2018-10-05T04:06:40.499Z,12.45
2018-10-05T04:09:09.885Z,12.54
2018-10-05T04:11:38.030Z,12.53
2018-10-05T04:14:06.237Z,12.50
2018-10-05T04:16:34.460Z,12.47
2018-10-05T04:19:02.759Z,12.61
2018-10-05T04:21:31.529Z,12.60
2018-10-05T04:23:59.727Z,12.54
2018-10-05T04:26:27.972Z,12.71
2018-10-05T04:28:56.876Z,12.83
2018-10-05T04:31:25.415Z,12.72
2018-10-05T04:33:53.607Z,12.66
2018-10-05T04:36:21.843Z,12.74
2018-10-05T04:38:50.040Z,12.58
2018-10-05T04:41:18.204Z,12.49
2018-10-05T04:43:52.385Z,12.60
2018-10-05T04:46:21.027Z,12.61
2018-10-05T04:48:49.213Z,12.52
2018-10-05T04:51:17.321Z,12.72
2018-10-05T04:53:46.327Z,12.78
2018-10-05T04:56:15.173Z,12.75
2018-10-05T04:58:43.773Z,12.80
2018-10-05T05:01:11.997Z,12.79
2018-10-05T05:03:40.281Z,12.68
2018-10-05T05:06:08.384Z,12.70
2018-10-05T05:08:36.712Z,12.62
2018-10-05T05:11:05.043Z,12.74
2018-10-05T05:13:33.271Z,12.73
2018-10-05T05:16:01.965Z,12.59
2018-10-05T05:18:30.100Z,12.62
2018-10-05T05:21:05.124Z,12.56
2018-10-05T05:23:33.273Z,12.61
2018-10-05T05:26:02.423Z,12.70
2018-10-05T05:28:30.585Z,12.62
2018-10-05T05:30:58.769Z,12.55
2018-10-05T05:33:27.085Z,12.51
2018-10-05T05:35:55.295Z,12.58
2018-10-05T05:38:23.501Z,12.59
2018-10-05T05:40:51.747Z,12.60
2018-10-05T05:43:20.077Z,12.61
2018-10-05T05:45:48.281Z,12.59
2018-10-05T05:48:16.453Z,12.58
2018-10-05T05:50:44.675Z,12.61
2018-10-05T05:53:13.012Z,12.62
2018-10-05T05:55:41.291Z,12.58
2018-10-05T05:58:09.679Z,12.63
2018-10-05T06:00:37.989Z,12.82
2018-10-05T06:03:06.129Z,12.82
2018-10-05T06:05:34.296Z,12.81
2018-10-05T06:08:02.464Z,12.80
2018-10-05T06:10:30.615Z,12.70
2018-10-05T06:12:59.281Z,12.70
2018-10-05T06:15:27.504Z,12.71
2018-10-05T06:17:55.716Z,12.70
2018-10-05T06:20:24.376Z,12.66
2018-10-05T06:22:52.619Z,12.59
2018-10-05T06:25:20.757Z,12.67
2018-10-05T06:27:49.034Z,12.53
2018-10-05T06:30:17.252Z,12.67
2018-10-05T06:32:46.057Z,12.64
2018-10-05T06:35:14.785Z,12.71
2018-10-05T06:37:43.450Z,12.72
2018-10-05T06:40:11.889Z,12.72
2018-10-05T06:42:41.930Z,12.72
2018-10-05T06:45:10.309Z,12.81
2018-10-05T06:47:38.483Z,12.84
2018-10-05T06:50:06.869Z,12.95
2018-10-05T06:52:35.027Z,12.90
2018-10-05T06:55:03.213Z,12.87
2018-10-05T06:57:31.573Z,12.99
2018-10-05T06:59:59.770Z,13.11
2018-10-05T07:02:28.669Z,13.12
2018-10-05T07:04:57.855Z,13.18
2018-10-05T07:07:26.220Z,13.26
2018-10-05T07:09:54.528Z,13.41
2018-10-05T07:12:23.043Z,13.59
2018-10-05T07:14:51.193Z,13.61
2018-10-05T07:17:19.429Z,13.81
2018-10-05T07:19:48.242Z,13.70
2018-10-05T07:22:17.867Z,13.71
2018-10-05T07:24:46.135Z,13.66
2018-10-05T07:27:14.367Z,13.64
2018-10-05T07:29:42.595Z,13.69
2018-10-05T07:32:10.806Z,13.71
2018-10-05T07:34:38.963Z,13.86
2018-10-05T07:37:07.360Z,13.85
2018-10-05T07:39:35.446Z,13.81
2018-10-05T07:42:03.694Z,13.95
2018-10-05T07:44:31.852Z,14.13
2018-10-05T07:47:00.187Z,14.19
2018-10-05T07:49:28.451Z,14.33
2018-10-05T07:51:56.750Z,14.36
2018-10-05T07:54:24.834Z,14.23
2018-10-05T07:56:52.999Z,14.30
2018-10-05T07:59:21.282Z,14.45
2018-10-05T08:01:49.573Z,14.48
2018-10-05T08:04:17.844Z,14.48
2018-10-05T08:06:46.123Z,14.44
2018-10-05T08:09:14.711Z,14.56
2018-10-05T08:11:42.962Z,14.67
2018-10-05T08:14:11.159Z,14.76
2018-10-05T08:16:39.278Z,14.74
2018-10-05T08:19:09.921Z,14.87
2018-10-05T08:21:39.599Z,14.80
2018-10-05T08:24:15.452Z,14.86
2018-10-05T08:26:46.090Z,15.03
2018-10-05T08:29:17.799Z,15.02
2018-10-05T08:31:47.740Z,14.99
2018-10-05T08:34:16.937Z,14.90
2018-10-05T08:36:45.287Z,15.10
2018-10-05T08:39:13.465Z,15.08
2018-10-05T08:41:41.740Z,15.17
2018-10-05T08:44:10.298Z,15.25
2018-10-05T08:46:38.805Z,15.31
2018-10-05T08:49:07.590Z,15.38
2018-10-05T08:51:36.035Z,15.51
2018-10-05T08:54:04.277Z,15.57
2018-10-05T08:56:32.794Z,15.56
2018-10-05T08:59:00.927Z,15.62
2018-10-05T09:01:29.162Z,15.67
2018-10-05T09:03:57.320Z,15.62
2018-10-05T09:06:25.414Z,15.69
2018-10-05T09:08:53.580Z,15.89
2018-10-05T09:11:21.883Z,15.90
2018-10-05T09:13:50.161Z,15.83
2018-10-05T09:16:18.392Z,15.90
2018-10-05T09:18:46.720Z,15.90
2018-10-05T09:21:14.950Z,15.89
2018-10-05T09:23:43.157Z,15.99
2018-10-05T09:26:11.420Z,16.23
2018-10-05T09:28:39.680Z,16.31
2018-10-05T09:31:07.944Z,16.32
2018-10-05T09:33:36.156Z,16.32
2018-10-05T09:36:04.370Z,16.52
2018-10-05T09:38:32.666Z,16.52
2018-10-05T09:41:00.974Z,16.38
2018-10-05T09:43:29.396Z,16.49
2018-10-05T09:45:57.525Z,16.54
2018-10-05T09:48:25.744Z,16.59
2018-10-05T09:50:54.116Z,16.61
2018-10-05T09:53:22.689Z,16.68
2018-10-05T09:55:50.516Z,16.80
2018-10-05T09:58:18.905Z,16.92
2018-10-05T10:00:52.532Z,17.06
2018-10-05T10:03:26.026Z,17.15
2018-10-05T10:05:54.266Z,17.28
2018-10-05T10:08:22.553Z,17.23
2018-10-05T10:10:50.755Z,17.24
2018-10-05T10:13:18.904Z,17.27
2018-10-05T10:15:47.152Z,17.32
2018-10-05T10:18:15.343Z,17.37
2018-10-05T10:20:43.598Z,17.53
2018-10-05T10:23:11.801Z,17.55
2018-10-05T10:25:39.986Z,17.58
2018-10-05T10:28:08.276Z,17.63
2018-10-05T10:30:36.385Z,17.70
2018-10-05T10:33:04.518Z,17.66
2018-10-05T10:35:32.715Z,17.63
2018-10-05T10:38:01.489Z,17.79
2018-10-05T10:40:29.661Z,17.79
2018-10-05T10:42:57.940Z,17.99
2018-10-05T10:45:26.147Z,18.05
2018-10-05T10:47:54.396Z,17.92
2018-10-05T10:50:22.535Z,17.85
2018-10-05T10:52:50.725Z,17.87
2018-10-05T10:55:18.957Z,18.08
2018-10-05T10:57:47.263Z,18.22
2018-10-05T11:00:15.429Z,18.26
2018-10-05T11:02:43.587Z,18.23
2018-10-05T11:05:12.150Z,18.19
2018-10-05T11:07:40.402Z,18.14
2018-10-05T11:10:08.721Z,18.17
2018-10-05T11:12:36.941Z,18.39
2018-10-05T11:15:05.179Z,18.36
2018-10-05T11:17:36.029Z,18.53
2018-10-05T11:20:04.611Z,18.61
2018-10-05T11:22:32.954Z,18.54
2018-10-05T11:25:01.588Z,18.60
2018-10-05T11:27:29.769Z,18.61
2018-10-05T11:29:58.091Z,18.77
2018-10-05T11:32:26.478Z,18.76
2018-10-05T11:34:54.777Z,18.68
2018-10-05T11:37:23.316Z,18.70
2018-10-05T11:39:51.523Z,18.71
2018-10-05T11:42:19.801Z,18.67
2018-10-05T11:44:48.409Z,18.64
2018-10-05T11:47:16.729Z,18.71
2018-10-05T11:49:44.920Z,18.69
2018-10-05T11:52:13.212Z,18.78
2018-10-05T11:54:41.765Z,18.85
2018-10-05T11:57:10.213Z,18.70
2018-10-05T11:59:38.384Z,18.89
2018-10-05T12:02:06.660Z,18.86
2018-10-05T12:04:34.886Z,18.82
2018-10-05T12:07:03.118Z,19.06
2018-10-05T12:09:31.347Z,19.06
2018-10-05T12:11:59.525Z,19.13
2018-10-05T12:14:27.700Z,19.20
2018-10-05T12:16:56.040Z,19.08
2018-10-05T12:19:24.359Z,19.03
2018-10-05T12:21:52.588Z,19.10
2018-10-05T12:24:21.011Z,19.22
2018-10-05T12:26:49.337Z,19.32
2018-10-05T12:29:19.032Z,19.28
2018-10-05T12:31:47.685Z,19.22
2018-10-05T12:34:15.841Z,19.30
2018-10-05T12:36:44.610Z,19.28
2018-10-05T12:39:13.155Z,19.14
2018-10-05T12:41:41.388Z,19.17
2018-10-05T12:44:09.729Z,19.28
2018-10-05T12:46:38.190Z,19.13
2018-10-05T12:49:06.744Z,19.13
2018-10-05T12:51:34.921Z,19.16
2018-10-05T12:54:04.526Z,19.24
2018-10-05T12:56:32.728Z,19.33
2018-10-05T12:59:01.280Z,19.41
2018-10-05T13:01:29.749Z,19.23
2018-10-05T13:03:57.980Z,19.26
2018-10-05T13:06:26.735Z,19.20
2018-10-05T13:08:54.971Z,19.42
2018-10-05T13:11:23.176Z,19.47
2018-10-05T13:13:51.421Z,19.37
2018-10-05T13:16:19.720Z,19.40
2018-10-05T13:18:48.095Z,19.30
2018-10-05T13:21:16.343Z,19.27
2018-10-05T13:23:44.588Z,19.46
2018-10-05T13:26:12.808Z,19.41
2018-10-05T13:28:41.129Z,19.40
2018-10-05T13:31:09.275Z,19.33
2018-10-05T13:33:37.406Z,19.24
2018-10-05T13:36:05.703Z,19.34
2018-10-05T13:38:34.253Z,19.30
2018-10-05T13:41:02.482Z,19.38
2018-10-05T13:43:30.818Z,19.28
2018-10-05T13:45:59.040Z,19.10
2018-10-05T13:48:31.889Z,19.21
2018-10-05T13:51:00.173Z,19.21
2018-10-05T13:53:28.415Z,19.20
2018-10-05T13:55:56.674Z,19.35
2018-10-05T13:58:24.983Z,19.30
2018-10-05T14:00:53.202Z,19.27
2018-10-05T14:03:21.911Z,19.19
2018-10-05T14:05:50.322Z,19.17
2018-10-05T14:08:18.480Z,19.16
2018-10-05T14:10:46.668Z,19.20
2018-10-05T14:13:15.291Z,19.15
2018-10-05T14:15:43.620Z,19.34
2018-10-05T14:18:11.976Z,19.37
2018-10-05T14:20:40.376Z,19.33
2018-10-05T14:23:08.462Z,19.14
2018-10-05T14:25:36.762Z,19.11
2018-10-05T14:28:04.904Z,19.03
2018-10-05T14:30:34.211Z,19.14
2018-10-05T14:33:02.606Z,19.17
2018-10-05T14:35:30.897Z,19.13
2018-10-05T14:37:59.106Z,19.01
2018-10-05T14:40:27.592Z,18.95
2018-10-05T14:42:55.889Z,18.86
2018-10-05T14:45:24.076Z,18.91
2018-10-05T14:47:52.272Z,18.93
2018-10-05T14:50:20.432Z,18.97
2018-10-05T14:52:48.733Z,18.95
2018-10-05T14:55:16.901Z,18.88
2018-10-05T14:57:50.824Z,18.74
2018-10-05T15:00:19.764Z,18.65
2018-10-05T15:02:48.777Z,18.69
2018-10-05T15:05:17.507Z,18.54
2018-10-05T15:07:45.659Z,18.79
2018-10-05T15:10:13.925Z,18.65
2018-10-05T15:12:42.138Z,18.60
2018-10-05T15:15:10.491Z,18.56
2018-10-05T15:17:38.826Z,18.41
2018-10-05T15:20:08.670Z,18.40
2018-10-05T15:22:37.880Z,18.48
2018-10-05T15:25:06.727Z,18.61
2018-10-05T15:27:35.058Z,18.51
2018-10-05T15:30:03.331Z,18.60
2018-10-05T15:32:31.557Z,18.57
2018-10-05T15:34:59.850Z,18.43
2018-10-05T15:37:28.356Z,18.51
2018-10-05T15:39:56.850Z,18.47
2018-10-05T15:42:25.117Z,18.36
2018-10-05T15:44:53.762Z,18.18
2018-10-05T15:47:21.987Z,18.22
2018-10-05T15:49:50.137Z,18.20
2018-10-05T15:52:18.435Z,18.16
2018-10-05T15:54:46.686Z,17.99
2018-10-05T15:57:15.737Z,18.07
2018-10-05T15:59:44.905Z,17.99
2018-10-05T16:02:13.262Z,17.99
2018-10-05T16:04:41.539Z,17.84
2018-10-05T16:07:09.743Z,17.71
2018-10-05T16:09:38.087Z,17.59
2018-10-05T16:12:06.596Z,17.57
2018-10-05T16:14:34.911Z,17.66
2018-10-05T16:17:03.489Z,17.49
2018-10-05T16:19:31.785Z,17.36
2018-10-05T16:22:00.047Z,17.29
2018-10-05T16:24:32.337Z,17.33
2018-10-05T16:27:00.670Z,17.35
2018-10-05T16:29:29.019Z,17.17
2018-10-05T16:31:57.268Z,17.27
2018-10-05T16:34:25.520Z,17.24
2018-10-05T16:36:53.777Z,17.07
2018-10-05T16:39:22.647Z,17.07
2018-10-05T16:41:50.921Z,17.04
2018-10-05T16:44:19.204Z,16.91
2018-10-05T16:46:48.328Z,16.74
2018-10-05T16:49:16.609Z,16.57
2018-10-05T16:51:47.958Z,16.37
2018-10-05T16:54:16.184Z,16.29
2018-10-05T16:56:44.432Z,16.25
2018-10-05T16:59:12.706Z,16.49
2018-10-05T17:01:41.071Z,16.70
2018-10-05T17:04:09.264Z,16.70
2018-10-05T17:06:37.727Z,16.60
2018-10-05T17:09:09.613Z,16.44
2018-10-05T17:11:40.218Z,16.26
2018-10-05T17:14:08.617Z,16.22
2018-10-05T17:16:37.364Z,16.35
2018-10-05T17:19:05.940Z,16.31
2018-10-05T17:21:34.492Z,16.29
2018-10-05T17:24:02.805Z,16.24
2018-10-05T17:26:31.048Z,16.04
2018-10-05T17:28:59.294Z,16.12
2018-10-05T17:31:27.589Z,16.01
2018-10-05T17:33:55.776Z,16.09
2018-10-05T17:36:24.054Z,16.09
2018-10-05T17:38:53.049Z,16.05
2018-10-05T17:41:22.793Z,16.06
2018-10-05T17:43:51.063Z,15.86
2018-10-05T17:46:19.380Z,15.84
2018-10-05T17:48:47.686Z,15.96
2018-10-05T17:51:15.899Z,15.81
2018-10-05T17:53:44.236Z,15.68
2018-10-05T17:56:12.570Z,15.65
2018-10-05T17:58:40.691Z,15.72
2018-10-05T18:01:08.977Z,15.67
2018-10-05T18:03:40.254Z,15.57
2018-10-05T18:06:08.546Z,15.45
2018-10-05T18:08:36.860Z,15.46
2018-10-05T18:11:05.069Z,15.57
2018-10-05T18:13:33.863Z,15.46
2018-10-05T18:16:02.874Z,15.40
2018-10-05T18:18:31.545Z,15.37
2018-10-05T18:21:01.359Z,15.39
2018-10-05T18:23:29.786Z,15.39
2018-10-05T18:25:58.080Z,15.26
2018-10-05T18:28:26.579Z,15.29
2018-10-05T18:30:54.815Z,15.10
2018-10-05T18:33:23.000Z,14.99
2018-10-05T18:35:51.378Z,14.85
2018-10-05T18:38:19.945Z,14.89
2018-10-05T18:40:48.181Z,14.73
2018-10-05T18:43:16.401Z,14.89
2018-10-05T18:45:45.254Z,14.74
2018-10-05T18:48:13.476Z,14.57
2018-10-05T18:50:41.771Z,14.52
2018-10-05T18:53:10.291Z,14.67
2018-10-05T18:55:38.637Z,14.80
2018-10-05T18:58:06.858Z,14.58
2018-10-05T19:00:35.118Z,14.59
2018-10-05T19:03:03.463Z,14.80
2018-10-05T19:05:31.758Z,14.58
2018-10-05T19:08:00.561Z,14.65
2018-10-05T19:10:29.039Z,14.40
2018-10-05T19:12:57.536Z,14.43
2018-10-05T19:15:25.756Z,14.38
2018-10-05T19:17:54.131Z,14.28
2018-10-05T19:20:22.738Z,14.25
2018-10-05T19:22:50.949Z,14.26
2018-10-05T19:25:19.292Z,14.12
2018-10-05T19:27:47.500Z,14.22
2018-10-05T19:30:15.726Z,14.19
2018-10-05T19:32:44.154Z,14.15
2018-10-05T19:35:12.566Z,14.11
2018-10-05T19:37:41.016Z,14.10
2018-10-05T19:40:09.380Z,14.10
2018-10-05T19:42:37.863Z,13.98
2018-10-05T19:45:07.119Z,14.15
2018-10-05T19:47:35.614Z,14.13
2018-10-05T19:50:03.882Z,14.05
2018-10-05T19:52:32.116Z,13.86
2018-10-05T19:55:00.406Z,14.05
2018-10-05T19:57:31.540Z,13.92
2018-10-05T19:59:59.864Z,14.06
2018-10-05T20:02:28.134Z,13.89
2018-10-05T20:04:56.385Z,13.79
2018-10-05T20:07:26.345Z,13.72
2018-10-05T20:09:54.784Z,13.80
2018-10-05T20:12:23.011Z,13.77
2018-10-05T20:14:51.304Z,13.75
2018-10-05T20:17:19.537Z,13.70
2018-10-05T20:19:47.757Z,13.73
2018-10-05T20:22:16.001Z,13.73
2018-10-05T20:24:44.202Z,13.60
2018-10-05T20:27:12.724Z,13.47
2018-10-05T20:29:40.913Z,13.38
2018-10-05T20:32:09.102Z,13.52
2018-10-05T20:34:37.301Z,13.42
2018-10-05T20:37:05.709Z,13.38
2018-10-05T20:39:33.817Z,13.18
2018-10-05T20:42:02.017Z,13.15
2018-10-05T20:44:30.293Z,13.31
2018-10-05T20:46:58.468Z,13.22
2018-10-05T20:49:26.659Z,13.18
2018-10-05T20:51:54.865Z,13.39
2018-10-05T20:54:23.072Z,13.26
2018-10-05T20:56:51.529Z,13.28
2018-10-05T20:59:19.751Z,13.36
2018-10-05T21:01:47.945Z,13.30
2018-10-05T21:04:16.154Z,13.03
2018-10-05T21:06:44.374Z,13.17
2018-10-05T21:09:12.541Z,13.13
2018-10-05T21:11:40.755Z,12.81
2018-10-05T21:14:12.640Z,12.75
2018-10-05T21:16:40.873Z,12.89
2018-10-05T21:19:09.149Z,12.93
2018-10-05T21:21:37.323Z,12.71
2018-10-05T21:24:05.608Z,12.63
2018-10-05T21:26:33.818Z,12.68
2018-10-05T21:29:02.226Z,12.49
2018-10-05T21:31:31.325Z,12.53
2018-10-05T21:33:59.731Z,12.47
2018-10-05T21:36:28.094Z,12.47
2018-10-05T21:38:56.367Z,12.38
2018-10-05T21:41:24.561Z,12.43
2018-10-05T21:43:52.799Z,12.39
2018-10-05T21:46:20.955Z,12.31
2018-10-05T21:48:49.873Z,12.42
2018-10-05T21:51:18.090Z,12.52
2018-10-05T21:53:46.232Z,12.65
2018-10-05T21:56:14.490Z,12.54
2018-10-05T21:58:42.663Z,12.54
2018-10-05T22:01:10.857Z,12.51
2018-10-05T22:03:39.073Z,12.36
2018-10-05T22:06:07.435Z,12.30
2018-10-05T22:08:35.564Z,12.15
2018-10-05T22:11:04.013Z,12.13
2018-10-05T22:13:32.174Z,12.09
2018-10-05T22:16:01.061Z,12.03
2018-10-05T22:18:29.271Z,11.98
2018-10-05T22:20:57.441Z,12.16
2018-10-05T22:23:25.739Z,12.09
2018-10-05T22:25:53.931Z,12.14
2018-10-05T22:28:22.228Z,11.96
2018-10-05T22:30:50.423Z,12.03
2018-10-05T22:33:18.680Z,11.98
2018-10-05T22:35:46.912Z,11.83
2018-10-05T22:38:15.122Z,11.95
2018-10-05T22:40:43.322Z,11.94
2018-10-05T22:43:11.468Z,11.94
2018-10-05T22:45:39.804Z,11.83
2018-10-05T22:48:07.994Z,11.90
2018-10-05T22:50:36.252Z,12.00
2018-10-05T22:53:04.455Z,11.95
2018-10-05T22:55:32.704Z,11.85
2018-10-05T22:58:00.950Z,11.79
2018-10-05T23:00:29.156Z,12.00
2018-10-05T23:02:57.388Z,11.91
2018-10-05T23:05:25.604Z,11.73
2018-10-05T23:07:53.910Z,11.74
2018-10-05T23:10:22.226Z,11.66
2018-10-05T23:12:50.430Z,11.78
2018-10-05T23:15:18.635Z,11.65
2018-10-05T23:17:46.910Z,11.67
2018-10-05T23:20:15.112Z,11.53
2018-10-05T23:22:43.438Z,11.77
2018-10-05T23:25:11.598Z,11.66
2018-10-05T23:27:40.055Z,11.68
2018-10-05T23:30:08.390Z,11.55
2018-10-05T23:32:36.612Z,11.37
2018-10-05T23:35:04.850Z,11.38
2018-10-05T23:37:33.137Z,11.38
2018-10-05T23:40:01.358Z,11.55
2018-10-05T23:42:30.045Z,11.44
2018-10-05T23:44:58.232Z,11.44
2018-10-05T23:47:26.426Z,11.22
2018-10-05T23:49:55.304Z,11.41
2018-10-05T23:52:45.126Z,11.21
2018-10-05T23:55:13.282Z,11.21
2018-10-05T23:57:41.896Z,11.29
